M I D A S
Marine Information and Data Acquisition System
Tripno 1100 of the Zeeleeuw from 2006-05-08 07:10:12 to 2006-05-08 14:33:40
Back to CruiseResearch ActivitiesStationsMapUnderway DataData graphs

EquipmentUnitsComments
TimeDGPSUTC
LatitudeDGPSDM.mWGS84
LongitudeDGPSDM.mWGS84
SpeedMeteo Stationm/sRelative wind speed
DirectionMeteo StationdegRelative wind direction
TemperatureMeteo Stationdeg CelciusAir temperature
PressureMeteo StationPaAtmospheric pressure
HumidityMeteo Station%Relative humidity
Missing or incorrect values are displayed as -999
Metereological data collected by the RV Zeeleeuw from 2006-05-08 07:11:03 to 2006-05-08 14:51:04
                                                                                    Next 1000 lines
Time Latitude Longitude Speed Direction Temperature Pressure Humidity
2006-05-08 07:11:13 51°13.6 2°56.094 -999 30 16.4 101010 52
2006-05-08 07:11:18 51°13.601 2°56.091 -999 354 16.4 101010 52
2006-05-08 07:11:23 51°13.601 2°56.088 -999 2 16.4 101010 52
2006-05-08 07:11:28 51°13.602 2°56.084 -999 16 16.4 101020 51
2006-05-08 07:11:34 51°13.603 2°56.078 -999 14 16.4 101020 51
2006-05-08 07:11:39 51°13.604 2°56.072 -999 26 16.4 101020 51
2006-05-08 07:11:44 51°13.604 2°56.066 -999 29 16.4 101020 51
2006-05-08 07:11:49 51°13.605 2°56.059 -999 28 16.4 101020 51
2006-05-08 07:11:54 51°13.606 2°56.052 -999 30 16.4 101020 51
2006-05-08 07:11:59 51°13.606 2°56.045 -999 32 16.4 101020 52
2006-05-08 07:12:04 51°13.607 2°56.037 -999 16 16.4 101020 52
2006-05-08 07:12:09 51°13.608 2°56.028 -999 6 16.4 101020 52
2006-05-08 07:12:14 51°13.609 2°56.02 -999 11 16.4 101020 52
2006-05-08 07:12:19 51°13.61 2°56.012 -999 23 16.4 101030 52
2006-05-08 07:12:24 51°13.611 2°56.003 -999 351 16.4 101030 52
2006-05-08 07:12:29 51°13.613 2°55.995 -999 355 16.4 101020 52
2006-05-08 07:12:34 51°13.614 2°55.986 -999 359 16.4 101020 52
2006-05-08 07:12:39 51°13.616 2°55.978 -999 357 16.4 101020 52
2006-05-08 07:12:44 51°13.618 2°55.97 -999 356 16.4 101020 52
2006-05-08 07:12:48 51°13.62 2°55.963 -999 345 16.4 101030 52
2006-05-08 07:12:54 51°13.623 2°55.953 -999 7 16.4 101030 52
2006-05-08 07:12:59 51°13.625 2°55.944 -999 4 16.4 101020 52
2006-05-08 07:13:04 51°13.628 2°55.935 -999 2 16.4 101020 52
2006-05-08 07:13:09 51°13.631 2°55.926 -999 350 16.4 101030 52
2006-05-08 07:13:14 51°13.634 2°55.918 -999 18 16.4 101030 52
2006-05-08 07:13:19 51°13.638 2°55.909 -999 359 16.4 101020 52
2006-05-08 07:13:24 51°13.641 2°55.901 -999 12 16.4 101020 52
2006-05-08 07:13:29 51°13.645 2°55.892 -999 359 16.4 101020 52
2006-05-08 07:13:34 51°13.649 2°55.884 -999 333 16.4 101020 52
2006-05-08 07:13:39 51°13.653 2°55.875 -999 340 16.4 101020 53
2006-05-08 07:13:44 51°13.657 2°55.867 -999 337 16.4 101020 53
2006-05-08 07:13:49 51°13.662 2°55.859 -999 332 16.4 101020 53
2006-05-08 07:13:54 51°13.666 2°55.85 -999 322 16.4 101020 53
2006-05-08 07:13:59 51°13.671 2°55.842 -999 308 16.4 101020 53
2006-05-08 07:14:04 51°13.675 2°55.833 -999 327 16.4 101020 53
2006-05-08 07:14:09 51°13.68 2°55.824 -999 333 16.4 101030 53
2006-05-08 07:14:14 51°13.685 2°55.816 -999 307 16.4 101030 53
2006-05-08 07:14:19 51°13.689 2°55.808 -999 35 16.4 101030 53
2006-05-08 07:14:24 51°13.693 2°55.8 -999 306 16.4 101030 53
2006-05-08 07:14:29 51°13.697 2°55.793 -999 308 16.4 101020 53
2006-05-08 07:14:34 51°13.7 2°55.785 -999 319 16.4 101020 53
2006-05-08 07:14:38 51°13.703 2°55.779 -999 309 16.4 101020 53
2006-05-08 07:14:44 51°13.707 2°55.77 -999 324 16.4 101020 53
2006-05-08 07:14:49 51°13.71 2°55.762 -999 356 16.5 101020 53
2006-05-08 07:14:54 51°13.713 2°55.755 -999 339 16.5 101020 53
2006-05-08 07:14:59 51°13.716 2°55.748 -999 355 16.5 101020 53
2006-05-08 07:15:04 51°13.718 2°55.741 -999 349 16.5 101020 53
2006-05-08 07:15:09 51°13.72 2°55.735 -999 343 16.5 101020 52
2006-05-08 07:15:14 51°13.722 2°55.729 -999 353 16.5 101020 52
2006-05-08 07:15:18 51°13.723 2°55.725 -999 2 16.5 101020 51
2006-05-08 07:15:23 51°13.725 2°55.721 -999 14 16.5 101020 51
2006-05-08 07:15:28 51°13.725 2°55.718 -999 12 16.5 101020 51
2006-05-08 07:15:33 51°13.726 2°55.715 -999 348 16.5 101020 51
2006-05-08 07:15:38 51°13.726 2°55.713 -999 19 16.5 101010 51
2006-05-08 07:15:43 51°13.727 2°55.712 -999 16 16.5 101010 51
2006-05-08 07:15:48 51°13.727 2°55.712 -999 16 16.5 101010 51
2006-05-08 07:15:54 51°13.728 2°55.712 -999 32 16.5 101010 51
2006-05-08 07:15:58 51°13.728 2°55.714 -999 30 16.5 101020 51
2006-05-08 07:16:04 51°13.729 2°55.717 -999 35 16.5 101020 51
2006-05-08 07:16:08 51°13.729 2°55.719 -999 37 16.5 101020 51
2006-05-08 07:16:13 51°13.73 2°55.721 -999 56 16.5 101020 51
2006-05-08 07:16:18 51°13.731 2°55.723 -999 46 16.5 101010 52
2006-05-08 07:16:23 51°13.731 2°55.724 -999 68 16.5 101010 52
2006-05-08 07:16:28 51°13.731 2°55.725 -999 66 16.5 101010 52
2006-05-08 07:16:32 51°13.732 2°55.725 -999 97 16.5 101010 52
2006-05-08 07:16:38 51°13.732 2°55.724 -999 82 16.4 101020 52
2006-05-08 07:16:44 51°13.731 2°55.722 -999 72 16.4 101020 52
2006-05-08 07:16:48 51°13.731 2°55.721 -999 100 16.4 101020 53
2006-05-08 07:16:52 51°13.73 2°55.719 -999 104 16.4 101020 53
2006-05-08 07:16:57 51°13.73 2°55.717 -999 108 16.4 101010 51
2006-05-08 07:17:04 51°13.728 2°55.715 -999 94 16.4 101010 51
2006-05-08 07:17:09 51°13.728 2°55.713 -999 102 16.4 101010 52
2006-05-08 07:17:14 51°13.728 2°55.712 -999 93 16.4 101010 52
2006-05-08 07:17:19 51°13.728 2°55.712 -999 103 16.4 101010 51
2006-05-08 07:17:24 51°13.729 2°55.711 -999 99 16.4 101010 51
2006-05-08 07:17:29 51°13.73 2°55.711 -999 111 16.4 101010 52
2006-05-08 07:17:34 51°13.731 2°55.712 -999 110 16.4 101010 52
2006-05-08 07:17:39 51°13.733 2°55.712 -999 129 16.4 101010 52
2006-05-08 07:17:44 51°13.735 2°55.712 -999 123 16.4 101010 52
2006-05-08 07:17:48 51°13.737 2°55.712 -999 126 16.4 101010 52
2006-05-08 07:17:53 51°13.74 2°55.712 -999 133 16.4 101010 52
2006-05-08 07:17:58 51°13.743 2°55.711 -999 226 16.4 101020 52
2006-05-08 07:18:04 51°13.748 2°55.71 -999 136 16.4 101020 52
2006-05-08 07:18:08 51°13.751 2°55.709 -999 130 16.4 101020 52
2006-05-08 07:18:12 51°13.754 2°55.707 -999 144 16.4 101020 52
2006-05-08 07:18:18 51°13.759 2°55.704 -999 129 16.4 101020 51
2006-05-08 07:18:24 51°13.765 2°55.7 -999 226 16.4 101020 51
2006-05-08 07:18:27 51°13.768 2°55.698 -999 116 16.4 101020 51
2006-05-08 07:18:33 51°13.775 2°55.692 -999 120 16.4 101020 51
2006-05-08 07:18:38 51°13.782 2°55.686 -999 111 16.4 101020 52
2006-05-08 07:18:43 51°13.788 2°55.68 -999 146 16.4 101020 52
2006-05-08 07:18:48 51°13.796 2°55.674 -999 83 16.4 101020 52
2006-05-08 07:18:53 51°13.803 2°55.667 -999 120 16.4 101020 52
2006-05-08 07:18:58 51°13.811 2°55.66 -999 109 16.4 101030 51
2006-05-08 07:19:04 51°13.82 2°55.651 -999 90 16.4 101030 51
2006-05-08 07:19:08 51°13.827 2°55.645 -999 86 16.4 101020 51
2006-05-08 07:19:13 51°13.836 2°55.637 -999 113 16.4 101020 51
2006-05-08 07:19:18 51°13.844 2°55.63 -999 134 16.4 101020 51
2006-05-08 07:19:23 51°13.854 2°55.622 -999 121 16.4 101020 51
2006-05-08 07:19:28 51°13.863 2°55.614 -999 111 16.4 101030 51
2006-05-08 07:19:33 51°13.872 2°55.607 -999 44 16.4 101030 51
2006-05-08 07:19:38 51°13.882 2°55.599 -999 70 16.4 101030 51
2006-05-08 07:19:44 51°13.894 2°55.59 -999 89 16.4 101030 51
2006-05-08 07:19:48 51°13.902 2°55.584 -999 115 16.4 101030 51
2006-05-08 07:19:52 51°13.91 2°55.578 -999 104 16.4 101030 51
2006-05-08 07:19:57 51°13.92 2°55.571 -999 94 16.4 101030 51
2006-05-08 07:20:03 51°13.932 2°55.562 -999 115 16.4 101030 51
2006-05-08 07:20:08 51°13.942 2°55.554 -999 122 16.4 101030 51
2006-05-08 07:20:14 51°13.954 2°55.545 -999 131 16.4 101030 51
2006-05-08 07:20:18 51°13.962 2°55.539 -999 117 16.4 101030 51
2006-05-08 07:20:23 51°13.973 2°55.532 -999 121 16.4 101030 51
2006-05-08 07:20:28 51°13.982 2°55.524 -999 135 16.4 101030 51
2006-05-08 07:20:32 51°13.99 2°55.518 -999 135 16.4 101030 51
2006-05-08 07:20:38 51°14.001 2°55.51 -999 149 16.4 101020 51
2006-05-08 07:20:43 51°14.011 2°55.503 -999 131 16.4 101020 51
2006-05-08 07:20:48 51°14.02 2°55.496 -999 108 16.4 101030 51
2006-05-08 07:20:52 51°14.027 2°55.491 -999 93 16.4 101030 51
2006-05-08 07:20:58 51°14.038 2°55.484 -999 121 16.4 101030 51
2006-05-08 07:21:03 51°14.047 2°55.477 -999 123 16.4 101030 51
2006-05-08 07:21:08 51°14.056 2°55.471 -999 121 16.4 101030 51
2006-05-08 07:21:13 51°14.066 2°55.464 -999 114 16.4 101030 51
2006-05-08 07:21:18 51°14.076 2°55.457 -999 111 16.4 101030 52
2006-05-08 07:21:23 51°14.086 2°55.449 -999 117 16.4 101030 52
2006-05-08 07:21:28 51°14.097 2°55.441 -999 112 16.4 101030 52
2006-05-08 07:21:34 51°14.11 2°55.432 -999 120 16.4 101030 52
2006-05-08 07:21:38 51°14.119 2°55.425 -999 120 16.4 101030 52
2006-05-08 07:21:43 51°14.131 2°55.417 -999 99 16.4 101030 52
2006-05-08 07:21:47 51°14.14 2°55.41 -999 124 16.4 101030 51
2006-05-08 07:21:53 51°14.153 2°55.399 -999 121 16.4 101030 51
2006-05-08 07:21:58 51°14.165 2°55.389 -999 122 16.4 101020 51
2006-05-08 07:22:03 51°14.176 2°55.378 -999 124 16.4 101020 51
2006-05-08 07:22:08 51°14.187 2°55.367 -999 125 16.4 101020 51
2006-05-08 07:22:14 51°14.201 2°55.353 -999 70 16.4 101020 51
2006-05-08 07:22:18 51°14.21 2°55.343 -999 103 16.4 101020 51
2006-05-08 07:22:23 51°14.22 2°55.33 -999 114 16.4 101020 51
2006-05-08 07:22:28 51°14.231 2°55.316 -999 126 16.4 101020 52
2006-05-08 07:22:32 51°14.239 2°55.304 -999 124 16.4 101020 52
2006-05-08 07:22:38 51°14.251 2°55.286 -999 99 16.4 101020 53
2006-05-08 07:22:43 51°14.261 2°55.27 -999 103 16.4 101020 53
2006-05-08 07:22:48 51°14.271 2°55.253 -999 110 16.4 101020 52
2006-05-08 07:22:52 51°14.278 2°55.24 -999 129 16.4 101020 52
2006-05-08 07:22:58 51°14.289 2°55.218 -999 135 16.4 101020 52
2006-05-08 07:23:03 51°14.297 2°55.2 -999 134 16.4 101020 52
2006-05-08 07:23:08 51°14.306 2°55.181 -999 144 16.4 101020 51
2006-05-08 07:23:12 51°14.313 2°55.165 -999 109 16.4 101020 51
2006-05-08 07:23:18 51°14.324 2°55.141 -999 135 16.4 101020 51
2006-05-08 07:23:24 51°14.334 2°55.117 -999 105 16.4 101020 51
2006-05-08 07:23:28 51°14.341 2°55.101 -999 67 16.4 101020 51
2006-05-08 07:23:33 51°14.35 2°55.08 -999 76 16.4 101020 51
2006-05-08 07:23:38 51°14.359 2°55.058 -999 74 16.5 101020 51
2006-05-08 07:23:44 51°14.37 2°55.034 -999 120 16.5 101020 51
2006-05-08 07:23:48 51°14.378 2°55.018 -999 106 16.4 101020 52
2006-05-08 07:23:53 51°14.389 2°54.999 -999 94 16.4 101020 52
2006-05-08 07:23:58 51°14.401 2°54.981 -999 105 16.4 101020 52
2006-05-08 07:24:03 51°14.412 2°54.964 -999 88 16.4 101020 52
2006-05-08 07:24:08 51°14.425 2°54.948 -999 100 16.4 101020 51
2006-05-08 07:24:13 51°14.437 2°54.931 -999 118 16.4 101020 51
2006-05-08 07:24:18 51°14.45 2°54.916 -999 109 16.4 101020 52
2006-05-08 07:24:23 51°14.463 2°54.9 -999 91 16.4 101020 52
2006-05-08 07:24:28 51°14.476 2°54.887 -999 111 16.3 101020 52
2006-05-08 07:24:33 51°14.49 2°54.875 -999 88 16.3 101020 52
2006-05-08 07:24:38 51°14.505 2°54.865 -999 83 16.3 101010 51
2006-05-08 07:24:42 51°14.518 2°54.858 -999 98 16.3 101010 51
2006-05-08 07:24:48 51°14.536 2°54.846 -999 97 16.3 101020 52
2006-05-08 07:24:52 51°14.549 2°54.839 -999 97 16.3 101020 52
2006-05-08 07:24:58 51°14.568 2°54.827 -999 102 16.3 101020 53
2006-05-08 07:25:03 51°14.584 2°54.816 -999 93 16.3 101020 53
2006-05-08 07:25:08 51°14.599 2°54.804 -999 99 16.3 101010 52
2006-05-08 07:25:13 51°14.615 2°54.791 -999 104 16.3 101010 52
2006-05-08 07:25:18 51°14.63 2°54.777 -999 102 16.3 101010 53
2006-05-08 07:25:23 51°14.645 2°54.762 -999 119 16.3 101010 53
2006-05-08 07:25:28 51°14.659 2°54.747 -999 122 16.3 101010 53
2006-05-08 07:25:32 51°14.671 2°54.734 -999 100 16.3 101010 53
2006-05-08 07:25:38 51°14.688 2°54.713 -999 106 16.2 101010 53
2006-05-08 07:25:43 51°14.702 2°54.696 -999 107 16.2 101010 53
2006-05-08 07:25:48 51°14.716 2°54.679 -999 113 16.2 101010 52
2006-05-08 07:25:52 51°14.727 2°54.665 -999 116 16.2 101010 52
2006-05-08 07:25:57 51°14.742 2°54.648 -999 108 16.2 101020 54
2006-05-08 07:26:04 51°14.762 2°54.625 -999 110 16.2 101020 54
2006-05-08 07:26:08 51°14.774 2°54.612 -999 103 16.2 101020 53
2006-05-08 07:26:14 51°14.792 2°54.593 -999 109 16.2 101020 53
2006-05-08 07:26:18 51°14.804 2°54.58 -999 100 16.2 101020 52
2006-05-08 07:26:23 51°14.819 2°54.564 -999 112 16.2 101020 52
2006-05-08 07:26:28 51°14.834 2°54.549 -999 101 16.2 101020 52
2006-05-08 07:26:33 51°14.849 2°54.533 -999 87 16.2 101020 52
2006-05-08 07:26:37 51°14.861 2°54.521 -999 93 16.2 101020 52
2006-05-08 07:26:42 51°14.876 2°54.505 -999 103 16.2 101020 52
2006-05-08 07:26:48 51°14.894 2°54.486 -999 98 16.2 101020 53
2006-05-08 07:26:52 51°14.906 2°54.474 -999 109 16.2 101020 53
2006-05-08 07:26:58 51°14.924 2°54.455 -999 87 16.2 101020 54
2006-05-08 07:27:03 51°14.939 2°54.439 -999 94 16.2 101020 54
2006-05-08 07:27:08 51°14.955 2°54.423 -999 88 16.2 101020 53
2006-05-08 07:27:13 51°14.97 2°54.407 -999 92 16.2 101020 53
2006-05-08 07:27:18 51°14.985 2°54.392 -999 95 16.2 101020 54
2006-05-08 07:27:24 51°15.003 2°54.373 -999 89 16.2 101020 54
2006-05-08 07:27:28 51°15.015 2°54.361 -999 84 16.2 101020 55
2006-05-08 07:27:34 51°15.034 2°54.343 -999 95 16.2 101020 55
2006-05-08 07:27:38 51°15.046 2°54.331 -999 101 16.1 101010 55
2006-05-08 07:27:44 51°15.065 2°54.313 -999 95 16.1 101010 55
2006-05-08 07:27:48 51°15.077 2°54.302 -999 95 16.1 101010 55
2006-05-08 07:27:52 51°15.09 2°54.291 -999 105 16.1 101010 55
2006-05-08 07:27:58 51°15.109 2°54.274 -999 97 16.1 101020 55
2006-05-08 07:28:04 51°15.128 2°54.256 -999 92 16.1 101020 55
2006-05-08 07:28:08 51°15.14 2°54.245 -999 94 16 101020 55
2006-05-08 07:28:12 51°15.152 2°54.233 -999 97 16 101020 55
2006-05-08 07:28:18 51°15.171 2°54.215 -999 105 16 101010 54
2006-05-08 07:28:24 51°15.189 2°54.197 -999 104 16 101010 54
2006-05-08 07:28:28 51°15.202 2°54.186 -999 95 16 101020 55
2006-05-08 07:28:31 51°15.211 2°54.177 -999 105 16 101020 55
2006-05-08 07:28:38 51°15.232 2°54.154 -999 109 16 101020 56
2006-05-08 07:28:42 51°15.243 2°54.141 -999 108 16 101020 56
2006-05-08 07:28:48 51°15.261 2°54.122 -999 117 16 101020 55
2006-05-08 07:28:54 51°15.279 2°54.102 -999 111 16 101020 55
2006-05-08 07:28:58 51°15.291 2°54.09 -999 99 16 101010 56
2006-05-08 07:29:02 51°15.303 2°54.078 -999 103 16 101010 56
2006-05-08 07:29:08 51°15.321 2°54.061 -999 105 15.9 101020 56
2006-05-08 07:29:14 51°15.34 2°54.045 -999 101 15.9 101020 56
2006-05-08 07:29:17 51°15.35 2°54.037 -999 94 15.9 101020 55
2006-05-08 07:29:24 51°15.372 2°54.019 -999 97 15.9 101020 55
2006-05-08 07:29:28 51°15.385 2°54.009 -999 99 15.9 101010 55
2006-05-08 07:29:33 51°15.401 2°53.996 -999 102 15.9 101010 55
2006-05-08 07:29:39 51°15.42 2°53.981 -999 99 15.9 101020 55
2006-05-08 07:29:44 51°15.437 2°53.969 -999 106 15.9 101020 55
2006-05-08 07:29:48 51°15.45 2°53.959 -999 106 15.9 101020 56
2006-05-08 07:29:52 51°15.463 2°53.95 -999 83 15.9 101020 56
2006-05-08 07:29:56 51°15.476 2°53.94 -999 92 15.9 101010 55
2006-05-08 07:30:03 51°15.499 2°53.923 -999 99 15.9 101010 55
2006-05-08 07:30:07 51°15.511 2°53.913 -999 93 15.9 101010 55
2006-05-08 07:30:14 51°15.534 2°53.896 -999 93 15.9 101010 55
2006-05-08 07:30:18 51°15.547 2°53.886 -999 97 15.9 101010 55
2006-05-08 07:30:24 51°15.567 2°53.871 -999 106 15.9 101010 55
2006-05-08 07:30:27 51°15.577 2°53.863 -999 104 15.9 101010 54
2006-05-08 07:30:34 51°15.599 2°53.844 -999 99 15.9 101010 54
2006-05-08 07:30:38 51°15.612 2°53.834 -999 100 15.8 101020 56
2006-05-08 07:30:44 51°15.631 2°53.818 -999 104 15.8 101020 56
2006-05-08 07:30:49 51°15.647 2°53.804 -999 106 15.8 101010 55
2006-05-08 07:30:54 51°15.663 2°53.791 -999 102 15.8 101010 55
2006-05-08 07:30:58 51°15.676 2°53.781 -999 99 15.8 101020 56
2006-05-08 07:31:03 51°15.692 2°53.768 -999 104 15.8 101020 56
2006-05-08 07:31:08 51°15.708 2°53.756 -999 96 15.8 101010 57
2006-05-08 07:31:14 51°15.727 2°53.741 -999 100 15.8 101010 57
2006-05-08 07:31:18 51°15.74 2°53.73 -999 101 15.8 101020 57
2006-05-08 07:31:24 51°15.759 2°53.715 -999 99 15.8 101020 57
2006-05-08 07:31:28 51°15.772 2°53.704 -999 95 15.8 101010 57
2006-05-08 07:31:34 51°15.791 2°53.689 -999 96 15.8 101010 57
2006-05-08 07:31:38 51°15.804 2°53.678 -999 99 15.7 101020 56
2006-05-08 07:31:44 51°15.823 2°53.663 -999 93 15.7 101020 56
2006-05-08 07:31:48 51°15.836 2°53.652 -999 96 15.7 101020 56
2006-05-08 07:31:54 51°15.855 2°53.637 -999 97 15.7 101020 56
2006-05-08 07:31:58 51°15.868 2°53.627 -999 95 15.7 101010 56
2006-05-08 07:32:04 51°15.888 2°53.611 -999 96 15.7 101010 56
2006-05-08 07:32:08 51°15.901 2°53.601 -999 95 15.7 101020 56
2006-05-08 07:32:14 51°15.92 2°53.586 -999 100 15.7 101020 56
2006-05-08 07:32:18 51°15.933 2°53.576 -999 93 15.7 101010 56
2006-05-08 07:32:23 51°15.949 2°53.563 -999 102 15.7 101010 56
2006-05-08 07:32:28 51°15.965 2°53.55 -999 100 15.7 101020 56
2006-05-08 07:32:32 51°15.978 2°53.541 -999 95 15.7 101020 56
2006-05-08 07:32:36 51°15.991 2°53.531 -999 100 15.7 101020 56
2006-05-08 07:32:43 51°16.013 2°53.513 -999 110 15.7 101020 56
2006-05-08 07:32:47 51°16.026 2°53.502 -999 91 15.7 101010 56
2006-05-08 07:32:54 51°16.048 2°53.484 -999 100 15.7 101010 56
2006-05-08 07:32:58 51°16.061 2°53.473 -999 100 15.7 101030 56
2006-05-08 07:33:04 51°16.08 2°53.457 -999 97 15.7 101030 56
2006-05-08 07:33:08 51°16.093 2°53.447 -999 102 15.7 101020 56
2006-05-08 07:33:14 51°16.112 2°53.431 -999 99 15.7 101020 56
2006-05-08 07:33:18 51°16.125 2°53.421 -999 101 15.7 101020 57
2006-05-08 07:33:24 51°16.144 2°53.405 -999 99 15.7 101020 57
2006-05-08 07:33:28 51°16.157 2°53.395 -999 106 15.6 101020 57
2006-05-08 07:33:34 51°16.177 2°53.38 -999 106 15.6 101020 57
2006-05-08 07:33:38 51°16.189 2°53.37 -999 109 15.6 101020 57
2006-05-08 07:33:44 51°16.209 2°53.355 -999 98 15.6 101020 57
2006-05-08 07:33:48 51°16.222 2°53.346 -999 108 15.6 101020 57
2006-05-08 07:33:54 51°16.241 2°53.331 -999 108 15.6 101020 57
2006-05-08 07:33:57 51°16.251 2°53.324 -999 106 15.6 101020 57
2006-05-08 07:34:04 51°16.274 2°53.308 -999 109 15.6 101020 57
2006-05-08 07:34:08 51°16.287 2°53.298 -999 107 15.6 101020 57
2006-05-08 07:34:14 51°16.306 2°53.284 -999 108 15.6 101020 57
2006-05-08 07:34:18 51°16.319 2°53.274 -999 107 15.6 101010 57
2006-05-08 07:34:24 51°16.338 2°53.259 -999 103 15.6 101010 57
2006-05-08 07:34:28 51°16.351 2°53.249 -999 103 15.6 101020 57
2006-05-08 07:34:34 51°16.37 2°53.234 -999 106 15.6 101020 57
2006-05-08 07:34:38 51°16.383 2°53.224 -999 105 15.5 101020 57
2006-05-08 07:34:44 51°16.402 2°53.208 -999 114 15.5 101020 57
2006-05-08 07:34:48 51°16.414 2°53.198 -999 111 15.5 101010 57
2006-05-08 07:34:52 51°16.427 2°53.188 -999 111 15.5 101010 57
2006-05-08 07:34:56 51°16.44 2°53.178 -999 104 15.5 101020 57
2006-05-08 07:35:04 51°16.465 2°53.158 -999 106 15.5 101020 57
2006-05-08 07:35:08 51°16.478 2°53.148 -999 118 15.5 101010 57
2006-05-08 07:35:14 51°16.497 2°53.133 -999 115 15.5 101010 57
2006-05-08 07:35:18 51°16.51 2°53.123 -999 124 15.5 101020 57
2006-05-08 07:35:23 51°16.526 2°53.11 -999 101 15.5 101020 57
2006-05-08 07:35:27 51°16.538 2°53.1 -999 101 15.5 101030 56
2006-05-08 07:35:34 51°16.561 2°53.081 -999 103 15.5 101030 56
2006-05-08 07:35:39 51°16.576 2°53.069 -999 108 15.5 101020 56
2006-05-08 07:35:44 51°16.592 2°53.056 -999 108 15.5 101020 56
2006-05-08 07:35:48 51°16.605 2°53.046 -999 107 15.5 101010 57
2006-05-08 07:35:52 51°16.618 2°53.036 -999 108 15.5 101010 57
2006-05-08 07:35:56 51°16.631 2°53.025 -999 104 15.5 101020 56
2006-05-08 07:36:03 51°16.653 2°53.008 -999 103 15.5 101020 56
2006-05-08 07:36:07 51°16.666 2°52.997 -999 107 15.5 101010 56
2006-05-08 07:36:14 51°16.688 2°52.979 -999 102 15.5 101010 56
2006-05-08 07:36:18 51°16.701 2°52.969 -999 114 15.5 101010 57
2006-05-08 07:36:24 51°16.72 2°52.955 -999 105 15.5 101010 57
2006-05-08 07:36:28 51°16.733 2°52.944 -999 89 15.5 101010 57
2006-05-08 07:36:34 51°16.752 2°52.929 -999 105 15.5 101010 57
2006-05-08 07:36:38 51°16.764 2°52.919 -999 115 15.5 101020 57
2006-05-08 07:36:44 51°16.783 2°52.903 -999 112 15.5 101020 57
2006-05-08 07:36:48 51°16.796 2°52.893 -999 100 15.5 101010 57
2006-05-08 07:36:52 51°16.808 2°52.883 -999 111 15.5 101010 57
2006-05-08 07:36:55 51°16.818 2°52.875 -999 114 15.5 101010 56
2006-05-08 07:37:04 51°16.847 2°52.853 -999 111 15.5 101010 56
2006-05-08 07:37:08 51°16.86 2°52.844 -999 110 15.5 101020 56
2006-05-08 07:37:11 51°16.869 2°52.837 -999 99 15.5 101020 56
2006-05-08 07:37:18 51°16.892 2°52.821 -999 108 15.5 101010 56
2006-05-08 07:37:24 51°16.911 2°52.807 -999 121 15.5 101010 56
2006-05-08 07:37:28 51°16.924 2°52.797 -999 110 15.5 101020 56
2006-05-08 07:37:32 51°16.937 2°52.788 -999 109 15.5 101020 56
2006-05-08 07:37:38 51°16.956 2°52.774 -999 116 15.5 101010 56
2006-05-08 07:37:44 51°16.976 2°52.759 -999 116 15.5 101010 56
2006-05-08 07:37:48 51°16.989 2°52.749 -999 115 15.5 101020 56
2006-05-08 07:37:54 51°17.008 2°52.735 -999 116 15.5 101020 56
2006-05-08 07:37:58 51°17.021 2°52.725 -999 107 15.5 101020 56
2006-05-08 07:38:04 51°17.041 2°52.711 -999 105 15.5 101020 56
2006-05-08 07:38:08 51°17.054 2°52.701 -999 112 15.5 101020 55
2006-05-08 07:38:14 51°17.073 2°52.686 -999 101 15.5 101020 55
2006-05-08 07:38:17 51°17.083 2°52.679 -999 106 15.5 101010 55
2006-05-08 07:38:24 51°17.106 2°52.662 -999 121 15.5 101010 55
2006-05-08 07:38:28 51°17.119 2°52.653 -999 114 15.6 101010 56
2006-05-08 07:38:34 51°17.139 2°52.641 -999 119 15.6 101010 56
2006-05-08 07:38:38 51°17.152 2°52.633 -999 111 15.6 101010 56
2006-05-08 07:38:44 51°17.172 2°52.622 -999 104 15.6 101010 56
2006-05-08 07:38:47 51°17.183 2°52.616 -999 105 15.5 101010 54
2006-05-08 07:38:52 51°17.2 2°52.607 -999 103 15.5 101010 54
2006-05-08 07:38:59 51°17.224 2°52.595 -999 102 15.6 101000 54
2006-05-08 07:39:03 51°17.238 2°52.587 -999 103 15.6 101000 54
2006-05-08 07:39:08 51°17.254 2°52.578 -999 101 15.6 101020 54
2006-05-08 07:39:12 51°17.268 2°52.571 -999 107 15.6 101020 54
2006-05-08 07:39:16 51°17.282 2°52.563 -999 105 15.6 101010 55
2006-05-08 07:39:24 51°17.309 2°52.547 -999 97 15.6 101010 55
2006-05-08 07:39:28 51°17.322 2°52.539 -999 101 15.6 101010 56
2006-05-08 07:39:32 51°17.336 2°52.532 -999 108 15.6 101010 56
2006-05-08 07:39:36 51°17.349 2°52.524 -999 98 15.6 101010 56
2006-05-08 07:39:43 51°17.373 2°52.51 -999 103 15.6 101010 56
2006-05-08 07:39:47 51°17.387 2°52.502 -999 101 15.6 101010 56
2006-05-08 07:39:54 51°17.411 2°52.488 -999 103 15.6 101010 56
2006-05-08 07:39:58 51°17.424 2°52.481 -999 108 15.6 101020 57
2006-05-08 07:40:03 51°17.442 2°52.471 -999 105 15.6 101020 57
2006-05-08 07:40:07 51°17.456 2°52.464 -999 101 15.6 101020 57
2006-05-08 07:40:14 51°17.48 2°52.452 -999 102 15.6 101020 57
2006-05-08 07:40:19 51°17.497 2°52.444 -999 98 15.6 101020 57
2006-05-08 07:40:24 51°17.514 2°52.438 -999 94 15.6 101020 57
2006-05-08 07:40:28 51°17.528 2°52.433 -999 91 15.5 101020 56
2006-05-08 07:40:32 51°17.543 2°52.429 -999 91 15.5 101020 56
2006-05-08 07:40:39 51°17.568 2°52.424 -999 95 15.5 101020 56
2006-05-08 07:40:44 51°17.586 2°52.42 -999 80 15.5 101020 56
2006-05-08 07:40:48 51°17.6 2°52.417 -999 91 15.5 101010 56
2006-05-08 07:40:54 51°17.621 2°52.414 -999 98 15.5 101010 56
2006-05-08 07:40:58 51°17.636 2°52.411 -999 90 15.5 101010 56
2006-05-08 07:41:04 51°17.657 2°52.408 -999 86 15.5 101010 56
2006-05-08 07:41:08 51°17.672 2°52.406 -999 81 15.5 101010 57
2006-05-08 07:41:12 51°17.686 2°52.404 -999 87 15.5 101010 57
2006-05-08 07:41:19 51°17.712 2°52.4 -999 93 15.5 101000 57
2006-05-08 07:41:23 51°17.726 2°52.397 -999 84 15.5 101000 57
2006-05-08 07:41:28 51°17.744 2°52.394 -999 91 15.4 101010 57
2006-05-08 07:41:32 51°17.758 2°52.392 -999 89 15.4 101010 57
2006-05-08 07:41:39 51°17.784 2°52.388 -999 86 15.4 101000 57
2006-05-08 07:41:43 51°17.798 2°52.386 -999 85 15.4 101000 57
2006-05-08 07:41:47 51°17.813 2°52.384 -999 92 15.4 101010 57
2006-05-08 07:41:54 51°17.838 2°52.38 -999 89 15.4 101010 57
2006-05-08 07:41:56 51°17.845 2°52.38 -999 93 15.4 101010 58
2006-05-08 07:42:04 51°17.874 2°52.377 -999 83 15.4 101010 58
2006-05-08 07:42:08 51°17.889 2°52.376 -999 88 15.4 101010 58
2006-05-08 07:42:12 51°17.903 2°52.374 -999 95 15.4 101010 58
2006-05-08 07:42:16 51°17.918 2°52.372 -999 88 15.3 101010 58
2006-05-08 07:42:23 51°17.943 2°52.369 -999 92 15.3 101010 58
2006-05-08 07:42:27 51°17.958 2°52.367 -999 87 15.3 101010 58
2006-05-08 07:42:34 51°17.983 2°52.364 -999 86 15.3 101010 58
2006-05-08 07:42:38 51°17.998 2°52.362 -999 81 15.3 101000 58
2006-05-08 07:42:44 51°18.02 2°52.359 -999 82 15.3 101000 58
2006-05-08 07:42:48 51°18.034 2°52.356 -999 88 15.3 101010 58
2006-05-08 07:42:52 51°18.048 2°52.354 -999 84 15.3 101010 58
2006-05-08 07:42:59 51°18.074 2°52.351 -999 80 15.3 101010 59
2006-05-08 07:43:04 51°18.092 2°52.35 -999 90 15.3 101010 59
2006-05-08 07:43:08 51°18.107 2°52.349 -999 87 15.2 101000 58
2006-05-08 07:43:14 51°18.129 2°52.349 -999 86 15.2 101000 58
2006-05-08 07:43:19 51°18.147 2°52.349 -999 78 15.2 101010 59
2006-05-08 07:43:24 51°18.165 2°52.349 -999 84 15.2 101010 59
2006-05-08 07:43:27 51°18.176 2°52.349 -999 78 15.2 101010 59
2006-05-08 07:43:34 51°18.202 2°52.35 -999 80 15.2 101010 59
2006-05-08 07:43:39 51°18.22 2°52.351 -999 85 15.2 101010 59
2006-05-08 07:43:44 51°18.238 2°52.352 -999 86 15.2 101010 59
2006-05-08 07:43:48 51°18.253 2°52.352 -999 85 15.1 101000 59
2006-05-08 07:43:54 51°18.275 2°52.353 -999 82 15.1 101000 59
2006-05-08 07:43:58 51°18.29 2°52.354 -999 80 15.1 101000 59
2006-05-08 07:44:04 51°18.311 2°52.355 -999 81 15.1 101000 59
2006-05-08 07:44:08 51°18.326 2°52.355 -999 82 15.1 101010 59
2006-05-08 07:44:14 51°18.348 2°52.356 -999 83 15.1 101010 59
2006-05-08 07:44:18 51°18.362 2°52.356 -999 84 15.1 101010 59
2006-05-08 07:44:24 51°18.384 2°52.356 -999 73 15.1 101010 59
2006-05-08 07:44:28 51°18.399 2°52.356 -999 83 15.1 101000 59
2006-05-08 07:44:34 51°18.42 2°52.357 -999 104 15.1 101000 59
2006-05-08 07:44:35 51°18.424 2°52.356 -999 78 15.1 101010 59
2006-05-08 07:44:44 51°18.457 2°52.356 -999 82 15.1 101010 59
2006-05-08 07:44:47 51°18.468 2°52.356 -999 80 15.1 101010 59
2006-05-08 07:44:54 51°18.494 2°52.355 -999 82 15.1 101010 59
2006-05-08 07:44:59 51°18.512 2°52.355 -999 78 15.1 101010 59
2006-05-08 07:45:04 51°18.53 2°52.355 -999 81 15.1 101010 59
2006-05-08 07:45:07 51°18.541 2°52.355 -999 77 15.1 101010 60
2006-05-08 07:45:14 51°18.567 2°52.355 -999 80 15.1 101010 60
2006-05-08 07:45:17 51°18.578 2°52.355 -999 86 15.1 101010 60
2006-05-08 07:45:24 51°18.603 2°52.356 -999 79 15.1 101010 60
2006-05-08 07:45:28 51°18.618 2°52.356 -999 85 15 101010 60
2006-05-08 07:45:31 51°18.629 2°52.356 -999 81 15 101010 60
2006-05-08 07:45:39 51°18.658 2°52.356 -999 81 15 101000 60
2006-05-08 07:45:44 51°18.677 2°52.356 -999 79 15 101000 60
2006-05-08 07:45:47 51°18.688 2°52.356 -999 84 15 101010 61
2006-05-08 07:45:54 51°18.713 2°52.356 -999 78 15 101010 61
2006-05-08 07:45:59 51°18.731 2°52.355 -999 82 15 101000 61
2006-05-08 07:46:04 51°18.75 2°52.355 -999 76 15 101000 61
2006-05-08 07:46:07 51°18.761 2°52.355 -999 78 14.9 101010 61
2006-05-08 07:46:14 51°18.786 2°52.354 -999 80 14.9 101010 61
2006-05-08 07:46:17 51°18.798 2°52.354 -999 79 15 101010 61
2006-05-08 07:46:24 51°18.823 2°52.354 -999 80 15 101010 61
2006-05-08 07:46:27 51°18.834 2°52.355 -999 79 14.9 101000 61
2006-05-08 07:46:34 51°18.86 2°52.355 -999 85 14.9 101000 61
2006-05-08 07:46:38 51°18.875 2°52.356 -999 87 14.9 101010 61
2006-05-08 07:46:44 51°18.897 2°52.356 -999 86 14.9 101010 61
2006-05-08 07:46:48 51°18.911 2°52.356 -999 83 14.9 101010 61
2006-05-08 07:46:54 51°18.933 2°52.356 -999 86 14.9 101010 61
2006-05-08 07:46:58 51°18.948 2°52.356 -999 81 14.9 101000 60
2006-05-08 07:47:04 51°18.97 2°52.356 -999 83 14.9 101000 60
2006-05-08 07:47:08 51°18.985 2°52.356 -999 82 14.9 101010 59
2006-05-08 07:47:14 51°19.007 2°52.355 -999 81 14.9 101010 59
2006-05-08 07:47:18 51°19.021 2°52.355 -999 85 14.9 101000 59
2006-05-08 07:47:24 51°19.044 2°52.355 -999 87 14.9 101000 59
2006-05-08 07:47:29 51°19.062 2°52.354 -999 80 14.9 101010 60
2006-05-08 07:47:34 51°19.08 2°52.354 -999 81 14.9 101010 60
2006-05-08 07:47:38 51°19.095 2°52.354 -999 82 14.9 101010 60
2006-05-08 07:47:44 51°19.117 2°52.354 -999 83 14.9 101010 60
2006-05-08 07:47:49 51°19.136 2°52.353 -999 83 14.9 101010 60
2006-05-08 07:47:54 51°19.154 2°52.353 -999 83 14.9 101010 60
2006-05-08 07:47:58 51°19.169 2°52.353 -999 82 14.9 101010 61
2006-05-08 07:48:04 51°19.191 2°52.353 -999 82 14.9 101010 61
2006-05-08 07:48:09 51°19.21 2°52.353 -999 83 14.9 101000 60
2006-05-08 07:48:14 51°19.228 2°52.353 -999 84 14.9 101000 60
2006-05-08 07:48:18 51°19.243 2°52.353 -999 84 14.9 101000 60
2006-05-08 07:48:24 51°19.265 2°52.352 -999 87 14.9 101000 60
2006-05-08 07:48:29 51°19.284 2°52.351 -999 88 14.9 101010 60
2006-05-08 07:48:34 51°19.302 2°52.351 -999 88 14.9 101010 60
2006-05-08 07:48:38 51°19.317 2°52.35 -999 80 14.9 101010 60
2006-05-08 07:48:44 51°19.339 2°52.349 -999 82 14.9 101010 60
2006-05-08 07:48:48 51°19.354 2°52.349 -999 82 14.9 101020 60
2006-05-08 07:48:54 51°19.377 2°52.348 -999 82 14.9 101020 60
2006-05-08 07:48:57 51°19.388 2°52.348 -999 78 14.9 101010 60
2006-05-08 07:49:04 51°19.413 2°52.347 -999 79 14.9 101010 60
2006-05-08 07:49:07 51°19.425 2°52.347 -999 80 14.9 101010 61
2006-05-08 07:49:14 51°19.451 2°52.346 -999 80 14.9 101010 61
2006-05-08 07:49:17 51°19.462 2°52.345 -999 80 14.9 101020 61
2006-05-08 07:49:24 51°19.487 2°52.344 -999 79 14.9 101020 61
2006-05-08 07:49:28 51°19.502 2°52.343 -999 81 14.9 101010 61
2006-05-08 07:49:34 51°19.525 2°52.341 -999 79 14.9 101010 61
2006-05-08 07:49:39 51°19.543 2°52.341 -999 82 14.9 101010 60
2006-05-08 07:49:44 51°19.562 2°52.34 -999 77 14.9 101010 60
2006-05-08 07:49:48 51°19.577 2°52.34 -999 83 14.9 101000 60
2006-05-08 07:49:54 51°19.599 2°52.339 -999 82 14.9 101000 60
2006-05-08 07:49:58 51°19.614 2°52.339 -999 83 14.9 101020 61
2006-05-08 07:50:04 51°19.636 2°52.339 -999 83 14.9 101020 61
2006-05-08 07:50:08 51°19.65 2°52.338 -999 83 14.8 101020 61
2006-05-08 07:50:12 51°19.665 2°52.338 -999 82 14.8 101020 61
2006-05-08 07:50:18 51°19.688 2°52.338 -999 82 14.9 101020 60
2006-05-08 07:50:24 51°19.71 2°52.337 -999 81 14.9 101020 60
2006-05-08 07:50:28 51°19.725 2°52.337 -999 80 14.9 101020 60
2006-05-08 07:50:34 51°19.747 2°52.337 -999 82 14.9 101020 60
2006-05-08 07:50:38 51°19.762 2°52.337 -999 79 14.9 101010 61
2006-05-08 07:50:44 51°19.784 2°52.337 -999 78 14.9 101010 61
2006-05-08 07:50:48 51°19.799 2°52.337 -999 80 14.9 101010 61
2006-05-08 07:50:54 51°19.821 2°52.336 -999 83 14.9 101010 61
2006-05-08 07:50:58 51°19.836 2°52.336 -999 83 14.9 101010 61
2006-05-08 07:51:04 51°19.859 2°52.337 -999 87 14.9 101010 61
2006-05-08 07:51:08 51°19.873 2°52.337 -999 88 14.8 101020 61
2006-05-08 07:51:14 51°19.896 2°52.336 -999 83 14.8 101020 61
2006-05-08 07:51:18 51°19.911 2°52.335 -999 84 14.8 101010 61
2006-05-08 07:51:24 51°19.933 2°52.335 -999 84 14.8 101010 61
2006-05-08 07:51:28 51°19.948 2°52.334 -999 80 14.8 101000 61
2006-05-08 07:51:32 51°19.962 2°52.334 -999 83 14.8 101000 61
2006-05-08 07:51:39 51°19.989 2°52.333 -999 82 14.8 101020 61
2006-05-08 07:51:44 51°20.007 2°52.333 -999 75 14.8 101020 61
2006-05-08 07:51:48 51°20.022 2°52.333 -999 84 14.9 101020 61
2006-05-08 07:51:52 51°20.037 2°52.333 -999 79 14.9 101020 61
2006-05-08 07:51:58 51°20.06 2°52.333 -999 83 14.8 101010 61
2006-05-08 07:52:04 51°20.082 2°52.333 -999 82 14.8 101010 61
2006-05-08 07:52:08 51°20.097 2°52.333 -999 87 14.8 101020 61
2006-05-08 07:52:12 51°20.112 2°52.333 -999 80 14.8 101020 61
2006-05-08 07:52:19 51°20.138 2°52.332 -999 88 14.8 101020 62
2006-05-08 07:52:23 51°20.153 2°52.332 -999 85 14.8 101020 62
2006-05-08 07:52:28 51°20.172 2°52.331 -999 83 14.8 101020 61
2006-05-08 07:52:32 51°20.187 2°52.33 -999 88 14.8 101020 61
2006-05-08 07:52:38 51°20.209 2°52.33 -999 94 14.8 101010 62
2006-05-08 07:52:44 51°20.231 2°52.33 -999 84 14.8 101010 62
2006-05-08 07:52:47 51°20.242 2°52.33 -999 83 14.8 101020 61
2006-05-08 07:52:54 51°20.268 2°52.33 -999 87 14.8 101020 61
2006-05-08 07:52:58 51°20.283 2°52.33 -999 82 14.8 101010 61
2006-05-08 07:53:04 51°20.305 2°52.33 -999 84 14.8 101010 61
2006-05-08 07:53:08 51°20.321 2°52.33 -999 83 14.8 101020 61
2006-05-08 07:53:12 51°20.336 2°52.33 -999 83 14.8 101020 61
2006-05-08 07:53:15 51°20.347 2°52.329 -999 83 14.8 101010 61
2006-05-08 07:53:24 51°20.38 2°52.329 -999 80 14.8 101010 61
2006-05-08 07:53:28 51°20.396 2°52.329 -999 81 14.8 101020 61
2006-05-08 07:53:31 51°20.407 2°52.329 -999 81 14.8 101020 61
2006-05-08 07:53:38 51°20.433 2°52.33 -999 81 14.8 101020 62
2006-05-08 07:53:44 51°20.455 2°52.331 -999 83 14.8 101020 62
2006-05-08 07:53:48 51°20.47 2°52.331 -999 81 14.8 101020 62
2006-05-08 07:53:54 51°20.493 2°52.331 -999 79 14.8 101020 62
2006-05-08 07:53:58 51°20.508 2°52.331 -999 82 14.8 101020 62
2006-05-08 07:54:04 51°20.53 2°52.331 -999 86 14.8 101020 62
2006-05-08 07:54:08 51°20.545 2°52.331 -999 79 14.8 101020 62
2006-05-08 07:54:12 51°20.56 2°52.332 -999 86 14.8 101020 62
2006-05-08 07:54:18 51°20.582 2°52.332 -999 83 14.7 101010 62
2006-05-08 07:54:24 51°20.604 2°52.332 -999 90 14.7 101010 62
2006-05-08 07:54:28 51°20.619 2°52.332 -999 83 14.7 101020 62
2006-05-08 07:54:32 51°20.634 2°52.332 -999 80 14.7 101020 62
2006-05-08 07:54:39 51°20.66 2°52.332 -999 83 14.7 101010 61
2006-05-08 07:54:44 51°20.679 2°52.333 -999 88 14.7 101010 61
2006-05-08 07:54:48 51°20.694 2°52.334 -999 83 14.7 101020 62
2006-05-08 07:54:51 51°20.705 2°52.334 -999 86 14.7 101020 62
2006-05-08 07:54:59 51°20.735 2°52.334 -999 82 14.7 101020 62
2006-05-08 07:55:04 51°20.753 2°52.334 -999 92 14.7 101020 62
2006-05-08 07:55:08 51°20.769 2°52.335 -999 82 14.7 101010 62
2006-05-08 07:55:11 51°20.78 2°52.335 -999 84 14.7 101010 62
2006-05-08 07:55:18 51°20.806 2°52.336 -999 86 14.7 101030 62
2006-05-08 07:55:24 51°20.828 2°52.336 -999 84 14.7 101030 62
2006-05-08 07:55:28 51°20.843 2°52.337 -999 83 14.8 101020 61
2006-05-08 07:55:34 51°20.866 2°52.337 -999 91 14.8 101020 61
2006-05-08 07:55:38 51°20.881 2°52.338 -999 88 14.7 101020 62
2006-05-08 07:55:44 51°20.903 2°52.339 -999 84 14.7 101020 62
2006-05-08 07:55:49 51°20.922 2°52.339 -999 82 14.8 101020 62
2006-05-08 07:55:54 51°20.94 2°52.34 -999 84 14.8 101020 62
2006-05-08 07:55:58 51°20.955 2°52.341 -999 83 14.7 101020 62
2006-05-08 07:56:04 51°20.977 2°52.341 -999 80 14.7 101020 62
2006-05-08 07:56:09 51°20.997 2°52.342 -999 82 14.7 101030 62
2006-05-08 07:56:14 51°21.014 2°52.342 -999 84 14.7 101030 62
2006-05-08 07:56:19 51°21.033 2°52.342 -999 86 14.7 101030 62
2006-05-08 07:56:24 51°21.052 2°52.342 -999 88 14.7 101030 62
2006-05-08 07:56:27 51°21.063 2°52.342 -999 80 14.7 101020 62
2006-05-08 07:56:34 51°21.089 2°52.343 -999 81 14.7 101020 62
2006-05-08 07:56:39 51°21.108 2°52.343 -999 88 14.7 101010 62
2006-05-08 07:56:44 51°21.127 2°52.342 -999 81 14.7 101010 62
2006-05-08 07:56:49 51°21.146 2°52.342 -999 84 14.7 101020 62
2006-05-08 07:56:54 51°21.164 2°52.342 -999 81 14.7 101020 62
2006-05-08 07:56:59 51°21.182 2°52.342 -999 83 14.7 101020 62
2006-05-08 07:57:04 51°21.201 2°52.342 -999 82 14.7 101020 62
2006-05-08 07:57:08 51°21.216 2°52.342 -999 80 14.7 101030 62
2006-05-08 07:57:12 51°21.231 2°52.342 -999 81 14.7 101030 62
2006-05-08 07:57:19 51°21.257 2°52.343 -999 81 14.7 101030 62
2006-05-08 07:57:24 51°21.275 2°52.343 -999 82 14.7 101030 62
2006-05-08 07:57:28 51°21.29 2°52.343 -999 85 14.7 101030 63
2006-05-08 07:57:30 51°21.298 2°52.343 -999 83 14.7 101030 63
2006-05-08 07:57:38 51°21.328 2°52.344 -999 82 14.7 101030 62
2006-05-08 07:57:44 51°21.35 2°52.345 -999 80 14.7 101030 62
2006-05-08 07:57:48 51°21.365 2°52.345 -999 75 14.7 101020 63
2006-05-08 07:57:54 51°21.387 2°52.346 -999 84 14.7 101020 63
2006-05-08 07:57:59 51°21.406 2°52.345 -999 78 14.7 101030 63
2006-05-08 07:58:04 51°21.424 2°52.346 -999 84 14.7 101030 63
2006-05-08 07:58:09 51°21.443 2°52.345 -999 92 14.6 101030 63
2006-05-08 07:58:14 51°21.462 2°52.346 -999 83 14.6 101030 63
2006-05-08 07:58:18 51°21.477 2°52.346 -999 84 14.6 101020 63
2006-05-08 07:58:24 51°21.499 2°52.346 -999 80 14.6 101020 63
2006-05-08 07:58:28 51°21.513 2°52.346 -999 83 14.6 101020 62
2006-05-08 07:58:34 51°21.536 2°52.346 -999 84 14.6 101020 62
2006-05-08 07:58:38 51°21.551 2°52.346 -999 84 14.6 101020 62
2006-05-08 07:58:44 51°21.573 2°52.346 -999 81 14.6 101020 62
2006-05-08 07:58:48 51°21.588 2°52.345 -999 79 14.7 101030 62
2006-05-08 07:58:54 51°21.61 2°52.346 -999 80 14.7 101030 62
2006-05-08 07:58:59 51°21.629 2°52.346 -999 76 14.6 101030 62
2006-05-08 07:59:04 51°21.647 2°52.346 -999 79 14.6 101030 62
2006-05-08 07:59:08 51°21.662 2°52.346 -999 78 14.7 101030 62
2006-05-08 07:59:13 51°21.681 2°52.346 -999 82 14.7 101030 62
2006-05-08 07:59:18 51°21.699 2°52.346 -999 82 14.6 101020 62
2006-05-08 07:59:24 51°21.722 2°52.345 -999 77 14.6 101020 62
2006-05-08 07:59:29 51°21.741 2°52.345 -999 81 14.6 101030 62
2006-05-08 07:59:34 51°21.759 2°52.345 -999 77 14.6 101030 62
2006-05-08 07:59:39 51°21.777 2°52.345 -999 81 14.6 101020 62
2006-05-08 07:59:44 51°21.796 2°52.345 -999 83 14.6 101020 62
2006-05-08 07:59:48 51°21.811 2°52.345 -999 79 14.6 101030 62
2006-05-08 07:59:54 51°21.833 2°52.344 -999 81 14.6 101030 62
2006-05-08 07:59:59 51°21.852 2°52.344 -999 76 14.6 101020 62
2006-05-08 08:00:04 51°21.87 2°52.344 -999 80 14.6 101020 62
2006-05-08 08:00:09 51°21.889 2°52.343 -999 82 14.6 101030 62
2006-05-08 08:00:14 51°21.907 2°52.343 -999 77 14.6 101030 62
2006-05-08 08:00:19 51°21.926 2°52.343 -999 76 14.6 101020 63
2006-05-08 08:00:24 51°21.945 2°52.344 -999 79 14.6 101020 63
2006-05-08 08:00:29 51°21.964 2°52.344 -999 81 14.6 101020 63
2006-05-08 08:00:31 51°21.971 2°52.344 -999 80 14.6 101020 63
2006-05-08 08:00:39 51°22.002 2°52.345 -999 78 14.6 101030 63
2006-05-08 08:00:43 51°22.017 2°52.345 -999 71 14.6 101030 63
2006-05-08 08:00:47 51°22.031 2°52.345 -999 80 14.6 101020 63
2006-05-08 08:00:54 51°22.058 2°52.346 -999 82 14.6 101020 63
2006-05-08 08:00:59 51°22.076 2°52.344 -999 84 14.6 101030 63
2006-05-08 08:01:03 51°22.091 2°52.344 -999 80 14.6 101030 63
2006-05-08 08:01:08 51°22.11 2°52.344 -999 79 14.6 101030 63
2006-05-08 08:01:14 51°22.132 2°52.344 -999 80 14.6 101030 63
2006-05-08 08:01:18 51°22.147 2°52.344 -999 79 14.5 101020 63
2006-05-08 08:01:24 51°22.17 2°52.344 -999 81 14.5 101020 63
2006-05-08 08:01:28 51°22.185 2°52.344 -999 76 14.6 101020 63
2006-05-08 08:01:34 51°22.207 2°52.343 -999 82 14.6 101020 63
2006-05-08 08:01:38 51°22.222 2°52.343 -999 80 14.6 101020 63
2006-05-08 08:01:43 51°22.241 2°52.344 -999 67 14.6 101020 63
2006-05-08 08:01:47 51°22.256 2°52.343 -999 78 14.5 101020 63
2006-05-08 08:01:54 51°22.282 2°52.343 -999 78 14.5 101020 63
2006-05-08 08:01:57 51°22.294 2°52.343 -999 79 14.5 101030 63
2006-05-08 08:02:04 51°22.319 2°52.342 -999 77 14.5 101030 63
2006-05-08 08:02:09 51°22.338 2°52.342 -999 71 14.5 101020 63
2006-05-08 08:02:10 51°22.342 2°52.342 -999 74 14.5 101020 63
2006-05-08 08:02:19 51°22.376 2°52.342 -999 73 14.5 101020 63
2006-05-08 08:02:24 51°22.394 2°52.342 -999 81 14.5 101020 63
2006-05-08 08:02:28 51°22.409 2°52.342 -999 81 14.5 101030 64
2006-05-08 08:02:34 51°22.432 2°52.342 -999 78 14.5 101030 64
2006-05-08 08:02:39 51°22.451 2°52.342 -999 72 14.5 101030 64
2006-05-08 08:02:44 51°22.469 2°52.341 -999 79 14.5 101030 64
2006-05-08 08:02:47 51°22.481 2°52.341 -999 77 14.5 101030 64
2006-05-08 08:02:54 51°22.507 2°52.341 -999 79 14.5 101030 64
2006-05-08 08:02:59 51°22.525 2°52.342 -999 80 14.5 101030 64
2006-05-08 08:03:03 51°22.54 2°52.343 -999 79 14.5 101030 64
2006-05-08 08:03:07 51°22.555 2°52.343 -999 75 14.4 101010 64
2006-05-08 08:03:14 51°22.581 2°52.343 -999 78 14.4 101010 64
2006-05-08 08:03:19 51°22.6 2°52.344 -999 78 14.4 101030 64
2006-05-08 08:03:24 51°22.618 2°52.344 -999 73 14.4 101030 64
2006-05-08 08:03:28 51°22.633 2°52.344 -999 73 14.4 101020 64
2006-05-08 08:03:34 51°22.656 2°52.345 -999 80 14.4 101020 64
2006-05-08 08:03:39 51°22.674 2°52.346 -999 80 14.4 101020 64
2006-05-08 08:03:44 51°22.693 2°52.347 -999 78 14.4 101020 64
2006-05-08 08:03:47 51°22.704 2°52.347 -999 79 14.4 101020 64
2006-05-08 08:03:54 51°22.731 2°52.348 -999 76 14.4 101020 64
2006-05-08 08:03:58 51°22.746 2°52.348 -999 78 14.4 101030 64
2006-05-08 08:04:04 51°22.768 2°52.349 -999 79 14.4 101030 64
2006-05-08 08:04:08 51°22.783 2°52.35 -999 80 14.4 101020 64
2006-05-08 08:04:14 51°22.806 2°52.351 -999 79 14.4 101020 64
2006-05-08 08:04:18 51°22.821 2°52.351 -999 79 14.4 101020 64
2006-05-08 08:04:23 51°22.84 2°52.352 -999 81 14.4 101020 64
2006-05-08 08:04:27 51°22.854 2°52.352 -999 75 14.4 101020 64
2006-05-08 08:04:34 51°22.881 2°52.353 -999 79 14.4 101020 64
2006-05-08 08:04:39 51°22.9 2°52.354 -999 79 14.4 101020 64
2006-05-08 08:04:43 51°22.915 2°52.355 -999 78 14.4 101020 64
2006-05-08 08:04:47 51°22.93 2°52.356 -999 79 14.4 101020 64
2006-05-08 08:04:54 51°22.956 2°52.356 -999 76 14.4 101020 64
2006-05-08 08:04:59 51°22.976 2°52.356 -999 77 14.4 101020 64
2006-05-08 08:05:03 51°22.991 2°52.356 -999 71 14.4 101020 64
2006-05-08 08:05:09 51°23.013 2°52.357 -999 79 14.4 101030 64
2006-05-08 08:05:14 51°23.032 2°52.357 -999 71 14.4 101030 64
2006-05-08 08:05:18 51°23.047 2°52.358 -999 75 14.4 101020 64
2006-05-08 08:05:24 51°23.07 2°52.358 -999 77 14.4 101020 64
2006-05-08 08:05:28 51°23.085 2°52.358 -999 72 14.4 101030 64
2006-05-08 08:05:34 51°23.108 2°52.359 -999 81 14.4 101030 64
2006-05-08 08:05:39 51°23.126 2°52.359 -999 77 14.4 101020 64
2006-05-08 08:05:43 51°23.142 2°52.36 -999 78 14.4 101020 64
2006-05-08 08:05:48 51°23.161 2°52.36 -999 72 14.4 101020 64
2006-05-08 08:05:54 51°23.184 2°52.361 -999 77 14.4 101020 64
2006-05-08 08:05:59 51°23.202 2°52.362 -999 77 14.4 101030 64
2006-05-08 08:06:04 51°23.221 2°52.362 -999 73 14.4 101030 64
2006-05-08 08:06:08 51°23.237 2°52.362 -999 75 14.4 101030 64
2006-05-08 08:06:14 51°23.259 2°52.363 -999 78 14.4 101030 64
2006-05-08 08:06:19 51°23.278 2°52.364 -999 75 14.4 101030 64
2006-05-08 08:06:24 51°23.297 2°52.364 -999 80 14.4 101030 64
2006-05-08 08:06:29 51°23.317 2°52.365 -999 75 14.4 101030 64
2006-05-08 08:06:34 51°23.335 2°52.365 -999 79 14.4 101030 64
2006-05-08 08:06:38 51°23.351 2°52.366 -999 79 14.4 101030 64
2006-05-08 08:06:43 51°23.37 2°52.366 -999 80 14.4 101030 64
2006-05-08 08:06:48 51°23.389 2°52.366 -999 78 14.4 101030 64
2006-05-08 08:06:54 51°23.412 2°52.368 -999 77 14.4 101030 64
2006-05-08 08:06:59 51°23.431 2°52.368 -999 80 14.4 101020 64
2006-05-08 08:07:04 51°23.45 2°52.369 -999 76 14.4 101020 64
2006-05-08 08:07:09 51°23.47 2°52.37 -999 75 14.4 101020 64
2006-05-08 08:07:14 51°23.488 2°52.371 -999 73 14.4 101020 64
2006-05-08 08:07:19 51°23.507 2°52.371 -999 76 14.4 101030 64
2006-05-08 08:07:24 51°23.527 2°52.371 -999 71 14.4 101030 64
2006-05-08 08:07:29 51°23.546 2°52.373 -999 71 14.4 101030 64
2006-05-08 08:07:34 51°23.565 2°52.373 -999 73 14.4 101030 64
2006-05-08 08:07:39 51°23.584 2°52.374 -999 82 14.4 101030 64
2006-05-08 08:07:43 51°23.599 2°52.374 -999 78 14.4 101030 64
2006-05-08 08:07:48 51°23.619 2°52.375 -999 76 14.4 101030 64
2006-05-08 08:07:54 51°23.642 2°52.376 -999 75 14.4 101030 64
2006-05-08 08:07:59 51°23.661 2°52.377 -999 78 14.4 101020 64
2006-05-08 08:08:04 51°23.68 2°52.377 -999 76 14.4 101020 64
2006-05-08 08:08:09 51°23.7 2°52.378 -999 79 14.4 101030 64
2006-05-08 08:08:14 51°23.718 2°52.379 -999 78 14.4 101030 64
2006-05-08 08:08:19 51°23.738 2°52.38 -999 75 14.4 101030 64
2006-05-08 08:08:24 51°23.757 2°52.38 -999 73 14.4 101030 64
2006-05-08 08:08:28 51°23.772 2°52.38 -999 73 14.4 101040 64
2006-05-08 08:08:32 51°23.788 2°52.381 -999 78 14.4 101040 64
2006-05-08 08:08:37 51°23.807 2°52.383 -999 70 14.4 101020 64
2006-05-08 08:08:44 51°23.834 2°52.384 -999 71 14.4 101020 64
2006-05-08 08:08:49 51°23.853 2°52.385 -999 76 14.4 101040 64
2006-05-08 08:08:54 51°23.872 2°52.385 -999 72 14.4 101040 64
2006-05-08 08:08:58 51°23.887 2°52.386 -999 75 14.4 101030 64
2006-05-08 08:09:03 51°23.906 2°52.386 -999 71 14.4 101030 64
2006-05-08 08:09:08 51°23.925 2°52.386 -999 71 14.4 101040 64
2006-05-08 08:09:13 51°23.945 2°52.386 -999 78 14.4 101040 64
2006-05-08 08:09:18 51°23.963 2°52.386 -999 67 14.4 101030 64
2006-05-08 08:09:23 51°23.982 2°52.386 -999 70 14.4 101030 64
2006-05-08 08:09:27 51°23.997 2°52.385 -999 80 14.4 101040 64
2006-05-08 08:09:34 51°24.023 2°52.386 -999 76 14.4 101040 64
2006-05-08 08:09:39 51°24.042 2°52.386 -999 73 14.4 101030 65
2006-05-08 08:09:43 51°24.057 2°52.387 -999 74 14.4 101030 65
2006-05-08 08:09:47 51°24.072 2°52.387 -999 76 14.4 101030 65
2006-05-08 08:09:54 51°24.098 2°52.386 -999 65 14.4 101030 65
2006-05-08 08:09:59 51°24.116 2°52.387 -999 70 14.4 101040 65
2006-05-08 08:10:03 51°24.13 2°52.388 -999 67 14.4 101040 65
2006-05-08 08:10:07 51°24.145 2°52.389 -999 68 14.4 101040 64
2006-05-08 08:10:14 51°24.171 2°52.391 -999 66 14.4 101040 64
2006-05-08 08:10:19 51°24.189 2°52.393 -999 66 14.3 101040 65
2006-05-08 08:10:23 51°24.204 2°52.394 -999 68 14.3 101040 65
2006-05-08 08:10:27 51°24.218 2°52.395 -999 66 14.3 101030 65
2006-05-08 08:10:34 51°24.244 2°52.394 -999 76 14.3 101030 65
2006-05-08 08:10:39 51°24.262 2°52.394 -999 69 14.3 101030 65
2006-05-08 08:10:43 51°24.277 2°52.393 -999 72 14.3 101030 65
2006-05-08 08:10:48 51°24.295 2°52.393 -999 72 14.3 101030 65
2006-05-08 08:10:54 51°24.317 2°52.395 -999 72 14.3 101030 65
2006-05-08 08:10:55 51°24.32 2°52.395 -999 69 14.2 101020 65
2006-05-08 08:11:04 51°24.354 2°52.396 -999 68 14.2 101020 65
2006-05-08 08:11:09 51°24.373 2°52.396 -999 73 14.2 101050 65
2006-05-08 08:11:14 51°24.391 2°52.397 -999 70 14.2 101050 65
2006-05-08 08:11:19 51°24.409 2°52.398 -999 74 14.2 101040 66
2006-05-08 08:11:24 51°24.428 2°52.399 -999 73 14.2 101040 66
2006-05-08 08:11:28 51°24.442 2°52.399 -999 68 14.2 101040 66
2006-05-08 08:11:31 51°24.453 2°52.4 -999 66 14.2 101040 66
2006-05-08 08:11:39 51°24.483 2°52.401 -999 68 14.2 101030 66
2006-05-08 08:11:44 51°24.502 2°52.401 -999 74 14.2 101030 66
2006-05-08 08:11:49 51°24.521 2°52.403 -999 70 14.1 101040 66
2006-05-08 08:11:54 51°24.539 2°52.403 -999 70 14.1 101040 66
2006-05-08 08:11:59 51°24.557 2°52.404 -999 69 14.1 101030 66
2006-05-08 08:12:03 51°24.572 2°52.404 -999 66 14.1 101030 66
2006-05-08 08:12:07 51°24.587 2°52.404 -999 74 14.1 101030 66
2006-05-08 08:12:14 51°24.613 2°52.404 -999 72 14.1 101030 66
2006-05-08 08:12:19 51°24.631 2°52.404 -999 73 14.1 101030 66
2006-05-08 08:12:23 51°24.646 2°52.404 -999 67 14.1 101030 66
2006-05-08 08:12:27 51°24.661 2°52.405 -999 64 14 101040 66
2006-05-08 08:12:34 51°24.687 2°52.404 -999 73 14 101040 66
2006-05-08 08:12:39 51°24.705 2°52.403 -999 68 14.1 101030 66
2006-05-08 08:12:43 51°24.72 2°52.403 -999 69 14.1 101030 66
2006-05-08 08:12:47 51°24.735 2°52.403 -999 75 14 101040 66
2006-05-08 08:12:54 51°24.761 2°52.404 -999 76 14 101040 66
2006-05-08 08:12:59 51°24.78 2°52.405 -999 70 14 101040 66
2006-05-08 08:13:03 51°24.794 2°52.405 -999 65 14 101040 66
2006-05-08 08:13:08 51°24.813 2°52.407 -999 67 14 101040 66
2006-05-08 08:13:13 51°24.831 2°52.407 -999 73 14 101040 66
2006-05-08 08:13:19 51°24.854 2°52.409 -999 70 14 101030 66
2006-05-08 08:13:24 51°24.872 2°52.409 -999 75 14 101030 66
2006-05-08 08:13:27 51°24.883 2°52.41 -999 67 14 101030 66
2006-05-08 08:13:34 51°24.909 2°52.41 -999 74 14 101030 66
2006-05-08 08:13:39 51°24.927 2°52.411 -999 73 14 101020 66
2006-05-08 08:13:43 51°24.942 2°52.41 -999 74 14 101020 66
2006-05-08 08:13:47 51°24.957 2°52.411 -999 69 14 101020 66
2006-05-08 08:13:54 51°24.983 2°52.41 -999 72 14 101020 66
2006-05-08 08:13:59 51°25.002 2°52.41 -999 73 14 101030 67
2006-05-08 08:14:03 51°25.017 2°52.411 -999 72 14 101030 67
2006-05-08 08:14:07 51°25.031 2°52.411 -999 67 14 101030 67
2006-05-08 08:14:14 51°25.057 2°52.411 -999 75 14 101030 67
2006-05-08 08:14:19 51°25.076 2°52.411 -999 69 14 101040 67
2006-05-08 08:14:23 51°25.09 2°52.411 -999 72 14 101040 67
2006-05-08 08:14:27 51°25.105 2°52.411 -999 67 14 101030 67
2006-05-08 08:14:34 51°25.131 2°52.411 -999 71 14 101030 67
2006-05-08 08:14:39 51°25.15 2°52.412 -999 69 14 101040 67
2006-05-08 08:14:44 51°25.169 2°52.413 -999 75 14 101040 67
2006-05-08 08:14:48 51°25.183 2°52.412 -999 72 13.9 101040 67
2006-05-08 08:14:54 51°25.206 2°52.413 -999 71 13.9 101040 67
2006-05-08 08:14:59 51°25.224 2°52.414 -999 75 13.9 101030 67
2006-05-08 08:15:03 51°25.239 2°52.415 -999 68 13.9 101030 67
2006-05-08 08:15:07 51°25.254 2°52.415 -999 74 13.9 101040 67
2006-05-08 08:15:14 51°25.28 2°52.416 -999 68 13.9 101040 67
2006-05-08 08:15:19 51°25.299 2°52.417 -999 68 13.9 101030 67
2006-05-08 08:15:23 51°25.314 2°52.418 -999 75 13.9 101030 67
2006-05-08 08:15:27 51°25.329 2°52.42 -999 69 13.9 101040 67
2006-05-08 08:15:34 51°25.355 2°52.426 -999 69 13.9 101040 67
2006-05-08 08:15:37 51°25.366 2°52.43 -999 66 13.9 101050 67
2006-05-08 08:15:43 51°25.388 2°52.438 -999 58 13.9 101050 67
2006-05-08 08:15:47 51°25.402 2°52.443 -999 65 13.9 101040 67
2006-05-08 08:15:54 51°25.427 2°52.455 -999 65 13.9 101040 67
2006-05-08 08:15:58 51°25.442 2°52.462 -999 61 13.9 101030 66
2006-05-08 08:16:04 51°25.463 2°52.473 -999 61 13.9 101030 66
2006-05-08 08:16:08 51°25.477 2°52.48 -999 62 13.9 101040 67
2006-05-08 08:16:14 51°25.498 2°52.491 -999 64 13.9 101040 67
2006-05-08 08:16:18 51°25.512 2°52.498 -999 63 13.9 101030 66
2006-05-08 08:16:23 51°25.53 2°52.506 -999 61 13.9 101030 66
2006-05-08 08:16:27 51°25.545 2°52.513 -999 62 14 101020 66
2006-05-08 08:16:34 51°25.569 2°52.525 -999 61 14 101020 66
2006-05-08 08:16:39 51°25.587 2°52.534 -999 60 13.9 101020 66
2006-05-08 08:16:43 51°25.601 2°52.541 -999 65 13.9 101020 66
2006-05-08 08:16:49 51°25.622 2°52.552 -999 64 14 101040 66
2006-05-08 08:16:54 51°25.64 2°52.56 -999 59 14 101040 66
2006-05-08 08:16:59 51°25.657 2°52.569 -999 63 13.9 101020 66
2006-05-08 08:17:04 51°25.675 2°52.577 -999 62 13.9 101020 66
2006-05-08 08:17:08 51°25.69 2°52.584 -999 61 14 101020 66
2006-05-08 08:17:10 51°25.697 2°52.587 -999 61 14 101020 66
2006-05-08 08:17:19 51°25.729 2°52.602 -999 60 14 101040 66
2006-05-08 08:17:23 51°25.743 2°52.609 -999 61 14 101040 66
2006-05-08 08:17:27 51°25.758 2°52.616 -999 58 14 101030 66
2006-05-08 08:17:34 51°25.783 2°52.629 -999 62 14 101030 66
2006-05-08 08:17:39 51°25.801 2°52.638 -999 62 14 101030 66
2006-05-08 08:17:43 51°25.815 2°52.645 -999 60 14 101030 66
2006-05-08 08:17:48 51°25.833 2°52.654 -999 60 14 101030 66
2006-05-08 08:17:54 51°25.855 2°52.664 -999 60 14 101030 66
2006-05-08 08:17:58 51°25.869 2°52.671 -999 58 13.9 101040 66
2006-05-08 08:18:03 51°25.887 2°52.68 -999 62 13.9 101040 66
2006-05-08 08:18:07 51°25.902 2°52.687 -999 66 14 101020 66
2006-05-08 08:18:14 51°25.927 2°52.7 -999 59 14 101020 66
2006-05-08 08:18:19 51°25.945 2°52.708 -999 57 14 101030 66
2006-05-08 08:18:24 51°25.963 2°52.717 -999 66 14 101030 66
2006-05-08 08:18:29 51°25.982 2°52.725 -999 61 13.9 101030 66
2006-05-08 08:18:34 51°25.999 2°52.734 -999 65 13.9 101030 66
2006-05-08 08:18:39 51°26.018 2°52.743 -999 65 13.9 101020 66
2006-05-08 08:18:43 51°26.032 2°52.75 -999 61 13.9 101020 66
2006-05-08 08:18:47 51°26.047 2°52.757 -999 63 13.9 101020 66
2006-05-08 08:18:54 51°26.072 2°52.769 -999 68 13.9 101020 66
2006-05-08 08:18:58 51°26.087 2°52.776 -999 66 13.9 101030 66
2006-05-08 08:19:04 51°26.108 2°52.787 -999 66 13.9 101030 66
2006-05-08 08:19:08 51°26.123 2°52.794 -999 61 13.9 101030 66
2006-05-08 08:19:14 51°26.145 2°52.805 -999 61 13.9 101030 66
2006-05-08 08:19:18 51°26.159 2°52.812 -999 61 13.9 101030 66
2006-05-08 08:19:24 51°26.181 2°52.823 -999 63 13.9 101030 66
2006-05-08 08:19:29 51°26.199 2°52.832 -999 62 13.9 101030 66
2006-05-08 08:19:34 51°26.217 2°52.841 -999 65 13.9 101030 66
2006-05-08 08:19:39 51°26.235 2°52.85 -999 66 13.9 101030 66
2006-05-08 08:19:44 51°26.253 2°52.859 -999 63 13.9 101030 66
2006-05-08 08:19:48 51°26.267 2°52.865 -999 62 13.9 101020 66
2006-05-08 08:19:50 51°26.275 2°52.869 -999 58 13.9 101020 66
2006-05-08 08:19:58 51°26.304 2°52.883 -999 65 13.9 101030 66
2006-05-08 08:20:04 51°26.326 2°52.892 -999 63 13.9 101030 66
2006-05-08 08:20:07 51°26.337 2°52.897 -999 62 13.9 101020 66
2006-05-08 08:20:14 51°26.363 2°52.908 -999 61 13.9 101020 66
2006-05-08 08:20:17 51°26.374 2°52.913 -999 65 13.9 101030 66
2006-05-08 08:20:23 51°26.395 2°52.922 -999 61 13.9 101030 66
2006-05-08 08:20:27 51°26.41 2°52.928 -999 63 13.9 101020 66
2006-05-08 08:20:34 51°26.435 2°52.938 -999 65 13.9 101020 66
2006-05-08 08:20:39 51°26.453 2°52.947 -999 62 13.9 101030 66
2006-05-08 08:20:43 51°26.467 2°52.953 -999 61 13.9 101030 66
2006-05-08 08:20:47 51°26.482 2°52.96 -999 60 13.9 101030 66
2006-05-08 08:20:54 51°26.507 2°52.971 -999 61 13.9 101030 66
2006-05-08 08:20:59 51°26.525 2°52.979 -999 65 13.9 101030 66
2006-05-08 08:21:04 51°26.543 2°52.986 -999 63 13.9 101030 66
2006-05-08 08:21:09 51°26.562 2°52.995 -999 63 13.9 101030 66
2006-05-08 08:21:14 51°26.579 2°53.003 -999 67 13.9 101030 66
2006-05-08 08:21:19 51°26.597 2°53.011 -999 64 13.9 101020 65
2006-05-08 08:21:24 51°26.615 2°53.019 -999 64 13.9 101020 65
2006-05-08 08:21:28 51°26.63 2°53.025 -999 64 13.9 101020 66
2006-05-08 08:21:34 51°26.651 2°53.035 -999 62 13.9 101020 66
2006-05-08 08:21:38 51°26.666 2°53.041 -999 62 13.9 101030 66
2006-05-08 08:21:44 51°26.687 2°53.051 -999 56 13.9 101030 66
2006-05-08 08:21:48 51°26.702 2°53.057 -999 59 13.9 101040 66
2006-05-08 08:21:51 51°26.713 2°53.062 -999 58 13.9 101040 66
2006-05-08 08:21:59 51°26.742 2°53.075 -999 65 13.9 101030 66
2006-05-08 08:22:04 51°26.76 2°53.083 -999 60 13.9 101030 66
2006-05-08 08:22:07 51°26.771 2°53.088 -999 64 13.9 101020 66
2006-05-08 08:22:10 51°26.782 2°53.093 -999 61 13.9 101020 66
2006-05-08 08:22:19 51°26.814 2°53.109 -999 57 13.9 101030 66
2006-05-08 08:22:24 51°26.833 2°53.117 -999 62 13.9 101030 66
2006-05-08 08:22:29 51°26.851 2°53.125 -999 64 13.8 101030 66
2006-05-08 08:22:34 51°26.869 2°53.133 -999 58 13.8 101030 66
2006-05-08 08:22:38 51°26.883 2°53.14 -999 63 13.8 101030 66
2006-05-08 08:22:44 51°26.905 2°53.15 -999 59 13.8 101030 66
2006-05-08 08:22:49 51°26.924 2°53.159 -999 61 13.8 101030 66
2006-05-08 08:22:54 51°26.941 2°53.166 -999 64 13.8 101030 66
2006-05-08 08:22:58 51°26.956 2°53.172 -999 67 13.8 101020 67
2006-05-08 08:23:03 51°26.974 2°53.18 -999 60 13.8 101020 67
2006-05-08 08:23:07 51°26.988 2°53.185 -999 62 13.8 101040 67
2006-05-08 08:23:14 51°27.014 2°53.197 -999 58 13.8 101040 67
2006-05-08 08:23:19 51°27.032 2°53.206 -999 61 13.8 101020 66
2006-05-08 08:23:23 51°27.047 2°53.213 -999 60 13.8 101020 66
2006-05-08 08:23:27 51°27.061 2°53.22 -999 63 13.8 101030 66
2006-05-08 08:23:34 51°27.087 2°53.231 -999 57 13.8 101030 66
2006-05-08 08:23:39 51°27.105 2°53.239 -999 59 13.8 101020 66
2006-05-08 08:23:43 51°27.12 2°53.246 -999 59 13.8 101020 66
2006-05-08 08:23:47 51°27.134 2°53.251 -999 58 13.8 101020 66
2006-05-08 08:23:54 51°27.16 2°53.262 -999 62 13.8 101020 66
2006-05-08 08:23:58 51°27.174 2°53.268 -999 62 13.8 101030 66
2006-05-08 08:24:04 51°27.196 2°53.278 -999 57 13.8 101030 66
2006-05-08 08:24:09 51°27.215 2°53.286 -999 57 13.8 101020 66
2006-05-08 08:24:14 51°27.232 2°53.294 -999 61 13.8 101020 66
2006-05-08 08:24:18 51°27.247 2°53.301 -999 66 13.7 101020 67
2006-05-08 08:24:24 51°27.269 2°53.311 -999 60 13.7 101020 67
2006-05-08 08:24:28 51°27.283 2°53.317 -999 59 13.7 101020 67
2006-05-08 08:24:34 51°27.305 2°53.327 -999 69 13.7 101020 67
2006-05-08 08:24:38 51°27.319 2°53.333 -999 61 13.7 101010 67
2006-05-08 08:24:43 51°27.337 2°53.34 -999 51 13.7 101010 67
2006-05-08 08:24:48 51°27.356 2°53.348 -999 61 13.7 101040 67
2006-05-08 08:24:54 51°27.377 2°53.358 -999 60 13.7 101040 67
2006-05-08 08:24:57 51°27.388 2°53.362 -999 59 13.7 101030 67
2006-05-08 08:25:03 51°27.41 2°53.372 -999 59 13.7 101030 67
2006-05-08 08:25:07 51°27.425 2°53.378 -999 58 13.7 101040 67
2006-05-08 08:25:14 51°27.45 2°53.389 -999 66 13.7 101040 67
2006-05-08 08:25:19 51°27.468 2°53.398 -999 63 13.7 101030 67
2006-05-08 08:25:23 51°27.483 2°53.404 -999 62 13.7 101030 67
2006-05-08 08:25:29 51°27.505 2°53.415 -999 56 13.7 101030 66
2006-05-08 08:25:34 51°27.523 2°53.424 -999 66 13.7 101030 66
2006-05-08 08:25:38 51°27.538 2°53.43 -999 60 13.7 101030 67
2006-05-08 08:25:44 51°27.56 2°53.44 -999 58 13.7 101030 67
2006-05-08 08:25:49 51°27.579 2°53.449 -999 59 13.7 101020 67
2006-05-08 08:25:54 51°27.596 2°53.456 -999 59 13.7 101020 67
2006-05-08 08:25:56 51°27.603 2°53.459 -999 58 13.7 101030 67
2006-05-08 08:26:04 51°27.633 2°53.472 -999 59 13.7 101030 67
2006-05-08 08:26:09 51°27.652 2°53.48 -999 61 13.7 101010 67
2006-05-08 08:26:14 51°27.669 2°53.488 -999 64 13.7 101010 67
2006-05-08 08:26:19 51°27.687 2°53.496 -999 61 13.7 101030 67
2006-05-08 08:26:24 51°27.706 2°53.505 -999 60 13.7 101030 67
2006-05-08 08:26:28 51°27.721 2°53.511 -999 61 13.7 101030 67
2006-05-08 08:26:32 51°27.735 2°53.518 -999 61 13.7 101030 67
2006-05-08 08:26:39 51°27.761 2°53.53 -999 62 13.7 101020 67
2006-05-08 08:26:44 51°27.779 2°53.539 -999 58 13.7 101020 67
2006-05-08 08:26:48 51°27.794 2°53.545 -999 58 13.7 101040 67
2006-05-08 08:26:53 51°27.812 2°53.554 -999 61 13.7 101040 67
2006-05-08 08:26:59 51°27.834 2°53.564 -999 60 13.7 101030 67
2006-05-08 08:27:04 51°27.852 2°53.573 -999 59 13.7 101030 67
2006-05-08 08:27:09 51°27.871 2°53.581 -999 60 13.7 101020 67
2006-05-08 08:27:14 51°27.889 2°53.589 -999 58 13.7 101020 67
2006-05-08 08:27:18 51°27.903 2°53.596 -999 59 13.7 101020 67
2006-05-08 08:27:24 51°27.926 2°53.607 -999 63 13.7 101020 67
2006-05-08 08:27:27 51°27.937 2°53.612 -999 65 13.6 101020 67
2006-05-08 08:27:34 51°27.962 2°53.624 -999 65 13.6 101020 67
2006-05-08 08:27:39 51°27.98 2°53.632 -999 61 13.6 101030 67
2006-05-08 08:27:44 51°27.998 2°53.64 -999 58 13.6 101030 67
2006-05-08 08:27:48 51°28.013 2°53.648 -999 60 13.6 101020 67
2006-05-08 08:27:54 51°28.035 2°53.658 -999 61 13.6 101020 67
2006-05-08 08:27:59 51°28.053 2°53.667 -999 61 13.6 101040 67
2006-05-08 08:28:04 51°28.071 2°53.676 -999 56 13.6 101040 67
2006-05-08 08:28:08 51°28.086 2°53.683 -999 58 13.6 101020 67
2006-05-08 08:28:14 51°28.108 2°53.694 -999 56 13.6 101020 67
2006-05-08 08:28:18 51°28.122 2°53.701 -999 62 13.6 101020 68
2006-05-08 08:28:24 51°28.144 2°53.711 -999 58 13.6 101020 68
2006-05-08 08:28:28 51°28.159 2°53.718 -999 61 13.6 101030 68
2006-05-08 08:28:32 51°28.173 2°53.725 -999 58 13.6 101030 68
2006-05-08 08:28:39 51°28.199 2°53.737 -999 57 13.6 101020 68
2006-05-08 08:28:44 51°28.217 2°53.745 -999 59 13.6 101020 68
2006-05-08 08:28:47 51°28.228 2°53.75 -999 57 13.6 101030 68
2006-05-08 08:28:54 51°28.254 2°53.762 -999 59 13.6 101030 68
2006-05-08 08:28:59 51°28.272 2°53.771 -999 56 13.6 101030 68
2006-05-08 08:29:04 51°28.29 2°53.778 -999 60 13.6 101030 68
2006-05-08 08:29:08 51°28.305 2°53.784 -999 59 13.6 101040 68
2006-05-08 08:29:14 51°28.327 2°53.794 -999 64 13.6 101040 68
2006-05-08 08:29:19 51°28.345 2°53.802 -999 57 13.6 101030 68
2006-05-08 08:29:24 51°28.363 2°53.81 -999 58 13.6 101030 68
2006-05-08 08:29:27 51°28.374 2°53.815 -999 55 13.6 101040 68
2006-05-08 08:29:32 51°28.392 2°53.824 -999 57 13.6 101040 68
2006-05-08 08:29:39 51°28.417 2°53.835 -999 60 13.5 101040 68
2006-05-08 08:29:44 51°28.436 2°53.843 -999 59 13.5 101040 68
2006-05-08 08:29:48 51°28.451 2°53.849 -999 57 13.6 101040 68
2006-05-08 08:29:53 51°28.469 2°53.858 -999 58 13.6 101040 68
2006-05-08 08:29:59 51°28.491 2°53.867 -999 58 13.5 101030 68
2006-05-08 08:30:04 51°28.508 2°53.875 -999 58 13.5 101030 68
2006-05-08 08:30:09 51°28.527 2°53.883 -999 59 13.6 101020 68
2006-05-08 08:30:14 51°28.545 2°53.891 -999 57 13.6 101020 68
2006-05-08 08:30:19 51°28.563 2°53.898 -999 57 13.6 101020 68
2006-05-08 08:30:24 51°28.581 2°53.906 -999 58 13.6 101020 68
2006-05-08 08:30:29 51°28.6 2°53.915 -999 55 13.6 101030 69
2006-05-08 08:30:34 51°28.617 2°53.922 -999 59 13.6 101030 69
2006-05-08 08:30:36 51°28.625 2°53.926 -999 57 13.5 101030 69
2006-05-08 08:30:44 51°28.653 2°53.938 -999 55 13.5 101030 69
2006-05-08 08:30:48 51°28.668 2°53.944 -999 57 13.5 101030 69
2006-05-08 08:30:51 51°28.679 2°53.949 -999 56 13.5 101030 69
2006-05-08 08:30:59 51°28.708 2°53.962 -999 54 13.5 101030 69
2006-05-08 08:31:04 51°28.726 2°53.969 -999 58 13.5 101030 69
2006-05-08 08:31:08 51°28.74 2°53.976 -999 58 13.5 101030 69
2006-05-08 08:31:14 51°28.762 2°53.986 -999 53 13.5 101030 69
2006-05-08 08:31:19 51°28.78 2°53.994 -999 59 13.5 101030 69
2006-05-08 08:31:24 51°28.798 2°54.003 -999 55 13.5 101030 69
2006-05-08 08:31:28 51°28.812 2°54.01 -999 54 13.5 101030 70
2006-05-08 08:31:34 51°28.834 2°54.019 -999 53 13.5 101030 70
2006-05-08 08:31:38 51°28.849 2°54.027 -999 54 13.5 101040 70
2006-05-08 08:31:44 51°28.871 2°54.037 -999 55 13.5 101040 70
2006-05-08 08:31:49 51°28.889 2°54.046 -999 58 13.4 101040 70
2006-05-08 08:31:54 51°28.906 2°54.054 -999 60 13.4 101040 70
2006-05-08 08:31:56 51°28.914 2°54.057 -999 60 13.4 101050 70
2006-05-08 08:32:04 51°28.942 2°54.071 -999 58 13.4 101050 70
2006-05-08 08:32:09 51°28.96 2°54.08 -999 58 13.4 101040 70
2006-05-08 08:32:13 51°28.975 2°54.086 -999 60 13.4 101040 70
2006-05-08 08:32:19 51°28.996 2°54.096 -999 58 13.4 101020 70
2006-05-08 08:32:24 51°29.014 2°54.104 -999 57 13.4 101020 70
2006-05-08 08:32:29 51°29.033 2°54.111 -999 55 13.4 101030 70
2006-05-08 08:32:34 51°29.05 2°54.119 -999 56 13.4 101030 70
2006-05-08 08:32:39 51°29.068 2°54.127 -999 54 13.4 101040 70
2006-05-08 08:32:44 51°29.086 2°54.135 -999 59 13.4 101040 70
2006-05-08 08:32:49 51°29.104 2°54.143 -999 53 13.3 101050 70
2006-05-08 08:32:54 51°29.122 2°54.151 -999 54 13.3 101050 70
2006-05-08 08:32:59 51°29.14 2°54.16 -999 55 13.3 101030 71
2006-05-08 08:33:04 51°29.158 2°54.168 -999 61 13.3 101030 71
2006-05-08 08:33:07 51°29.169 2°54.173 -999 57 13.3 101040 71
2006-05-08 08:33:14 51°29.194 2°54.185 -999 56 13.3 101040 71
2006-05-08 08:33:19 51°29.212 2°54.193 -999 59 13.3 101040 71
2006-05-08 08:33:24 51°29.23 2°54.201 -999 55 13.3 101040 71
2006-05-08 08:33:28 51°29.244 2°54.207 -999 58 13.3 101030 71
2006-05-08 08:33:34 51°29.265 2°54.217 -999 56 13.3 101030 71
2006-05-08 08:33:38 51°29.28 2°54.223 -999 54 13.3 101030 71
2006-05-08 08:33:43 51°29.298 2°54.232 -999 57 13.3 101030 71
2006-05-08 08:33:48 51°29.316 2°54.24 -999 62 13.3 101030 72
2006-05-08 08:33:53 51°29.334 2°54.248 -999 57 13.3 101030 72
2006-05-08 08:33:58 51°29.351 2°54.256 -999 59 13.2 101030 72
2006-05-08 08:34:04 51°29.372 2°54.266 -999 52 13.2 101030 72
2006-05-08 08:34:09 51°29.391 2°54.275 -999 59 13.2 101030 72
2006-05-08 08:34:14 51°29.408 2°54.282 -999 63 13.2 101030 72
2006-05-08 08:34:18 51°29.422 2°54.289 -999 60 13.2 101030 72
2006-05-08 08:34:24 51°29.443 2°54.299 -999 58 13.2 101030 72